sensor_id;sensor_type;location;lat;lon;timestamp;P1;durP1;ratioP1;P2;durP2;ratioP2
37771;SDS011;23610;59.380;24.642;2022-09-09T00:04:15;2.40;;;0.93;;
37771;SDS011;23610;59.380;24.642;2022-09-09T00:09:31;3.05;;;0.90;;
37771;SDS011;23610;59.380;24.642;2022-09-09T00:14:54;2.55;;;1.05;;
37771;SDS011;23610;59.380;24.642;2022-09-09T00:20:16;4.03;;;1.27;;
37771;SDS011;23610;59.380;24.642;2022-09-09T00:25:33;2.25;;;0.60;;
37771;SDS011;23610;59.380;24.642;2022-09-09T00:30:53;1.08;;;0.65;;
37771;SDS011;23610;59.380;24.642;2022-09-09T00:35:57;1.38;;;0.70;;
37771;SDS011;23610;59.380;24.642;2022-09-09T00:41:12;0.77;;;0.70;;
37771;SDS011;23610;59.380;24.642;2022-09-09T00:57:39;1.15;;;0.73;;
37771;SDS011;23610;59.380;24.642;2022-09-09T01:13:55;2.85;;;0.75;;
37771;SDS011;23610;59.380;24.642;2022-09-09T01:19:33;1.70;;;1.10;;
37771;SDS011;23610;59.380;24.642;2022-09-09T01:25:15;0.82;;;0.80;;
37771;SDS011;23610;59.380;24.642;2022-09-09T01:30:39;0.70;;;0.70;;
37771;SDS011;23610;59.380;24.642;2022-09-09T01:41:12;1.23;;;1.10;;
37771;SDS011;23610;59.380;24.642;2022-09-09T01:46:24;6.22;;;1.35;;
37771;SDS011;23610;59.380;24.642;2022-09-09T01:51:28;4.18;;;1.20;;
37771;SDS011;23610;59.380;24.642;2022-09-09T02:02:36;1.55;;;1.10;;
37771;SDS011;23610;59.380;24.642;2022-09-09T02:07:40;2.30;;;1.45;;
37771;SDS011;23610;59.380;24.642;2022-09-09T02:13:01;1.25;;;1.10;;
37771;SDS011;23610;59.380;24.642;2022-09-09T02:18:17;1.08;;;0.98;;
37771;SDS011;23610;59.380;24.642;2022-09-09T02:23:29;1.10;;;0.90;;
37771;SDS011;23610;59.380;24.642;2022-09-09T02:28:35;2.78;;;1.00;;
37771;SDS011;23610;59.380;24.642;2022-09-09T02:33:41;1.90;;;1.23;;
37771;SDS011;23610;59.380;24.642;2022-09-09T02:38:49;1.05;;;0.95;;
37771;SDS011;23610;59.380;24.642;2022-09-09T02:43:59;0.82;;;0.82;;
37771;SDS011;23610;59.380;24.642;2022-09-09T02:49:03;1.15;;;0.70;;
37771;SDS011;23610;59.380;24.642;2022-09-09T02:59:38;4.00;;;1.00;;
37771;SDS011;23610;59.380;24.642;2022-09-09T03:04:43;1.40;;;1.20;;
37771;SDS011;23610;59.380;24.642;2022-09-09T03:09:47;3.78;;;0.85;;
37771;SDS011;23610;59.380;24.642;2022-09-09T03:14:51;1.85;;;1.17;;
37771;SDS011;23610;59.380;24.642;2022-09-09T03:19:53;3.00;;;1.30;;
37771;SDS011;23610;59.380;24.642;2022-09-09T03:24:57;1.70;;;0.75;;
37771;SDS011;23610;59.380;24.642;2022-09-09T03:30:00;1.20;;;0.93;;
37771;SDS011;23610;59.380;24.642;2022-09-09T03:40:08;1.83;;;1.10;;
37771;SDS011;23610;59.380;24.642;2022-09-09T03:45:12;0.95;;;0.63;;
37771;SDS011;23610;59.380;24.642;2022-09-09T03:50:15;4.22;;;1.92;;
37771;SDS011;23610;59.380;24.642;2022-09-09T03:55:21;4.40;;;1.38;;
37771;SDS011;23610;59.380;24.642;2022-09-09T04:00:24;2.30;;;1.55;;
37771;SDS011;23610;59.380;24.642;2022-09-09T04:05:28;0.93;;;0.90;;
37771;SDS011;23610;59.380;24.642;2022-09-09T04:10:31;3.78;;;0.93;;
37771;SDS011;23610;59.380;24.642;2022-09-09T04:15:34;1.15;;;0.88;;
37771;SDS011;23610;59.380;24.642;2022-09-09T04:20:38;0.98;;;0.88;;
37771;SDS011;23610;59.380;24.642;2022-09-09T04:25:44;1.08;;;0.82;;
37771;SDS011;23610;59.380;24.642;2022-09-09T04:30:52;2.03;;;1.20;;
37771;SDS011;23610;59.380;24.642;2022-09-09T04:35:56;2.60;;;1.70;;
37771;SDS011;23610;59.380;24.642;2022-09-09T04:41:00;1.35;;;1.00;;
37771;SDS011;23610;59.380;24.642;2022-09-09T04:46:03;1.50;;;0.93;;
37771;SDS011;23610;59.380;24.642;2022-09-09T04:51:08;4.68;;;1.00;;
37771;SDS011;23610;59.380;24.642;2022-09-09T04:56:15;3.67;;;1.63;;
37771;SDS011;23610;59.380;24.642;2022-09-09T05:01:25;2.40;;;1.35;;
37771;SDS011;23610;59.380;24.642;2022-09-09T05:06:35;1.95;;;1.23;;
37771;SDS011;23610;59.380;24.642;2022-09-09T05:11:38;3.45;;;1.80;;
37771;SDS011;23610;59.380;24.642;2022-09-09T05:17:10;5.55;;;1.42;;
37771;SDS011;23610;59.380;24.642;2022-09-09T05:22:20;6.15;;;1.45;;
37771;SDS011;23610;59.380;24.642;2022-09-09T05:27:27;5.45;;;1.20;;
37771;SDS011;23610;59.380;24.642;2022-09-09T05:32:33;5.15;;;1.30;;
37771;SDS011;23610;59.380;24.642;2022-09-09T05:37:36;3.45;;;1.65;;
37771;SDS011;23610;59.380;24.642;2022-09-09T05:42:39;1.38;;;1.13;;
37771;SDS011;23610;59.380;24.642;2022-09-09T05:47:43;4.25;;;1.40;;
37771;SDS011;23610;59.380;24.642;2022-09-09T05:57:51;5.45;;;1.00;;
37771;SDS011;23610;59.380;24.642;2022-09-09T06:02:59;2.00;;;1.02;;
37771;SDS011;23610;59.380;24.642;2022-09-09T06:08:02;2.08;;;1.10;;
37771;SDS011;23610;59.380;24.642;2022-09-09T06:13:06;8.88;;;3.85;;
37771;SDS011;23610;59.380;24.642;2022-09-09T06:18:12;5.35;;;2.90;;
37771;SDS011;23610;59.380;24.642;2022-09-09T06:23:15;3.42;;;2.13;;
37771;SDS011;23610;59.380;24.642;2022-09-09T06:28:18;2.08;;;0.90;;
37771;SDS011;23610;59.380;24.642;2022-09-09T06:33:20;10.40;;;1.92;;
37771;SDS011;23610;59.380;24.642;2022-09-09T06:38:24;1.73;;;0.85;;
37771;SDS011;23610;59.380;24.642;2022-09-09T06:43:28;0.73;;;0.60;;
37771;SDS011;23610;59.380;24.642;2022-09-09T06:48:33;1.85;;;0.93;;
37771;SDS011;23610;59.380;24.642;2022-09-09T06:53:37;1.38;;;0.60;;
37771;SDS011;23610;59.380;24.642;2022-09-09T06:58:45;1.83;;;0.90;;
37771;SDS011;23610;59.380;24.642;2022-09-09T07:03:55;3.17;;;0.80;;
37771;SDS011;23610;59.380;24.642;2022-09-09T07:09:02;2.58;;;0.63;;
37771;SDS011;23610;59.380;24.642;2022-09-09T07:14:07;22.20;;;11.52;;
37771;SDS011;23610;59.380;24.642;2022-09-09T07:19:11;6.55;;;5.22;;
37771;SDS011;23610;59.380;24.642;2022-09-09T07:24:16;1.20;;;0.60;;
37771;SDS011;23610;59.380;24.642;2022-09-09T07:29:20;3.10;;;0.70;;
37771;SDS011;23610;59.380;24.642;2022-09-09T07:34:24;4.03;;;3.72;;
37771;SDS011;23610;59.380;24.642;2022-09-09T07:39:27;4.97;;;1.00;;
37771;SDS011;23610;59.380;24.642;2022-09-09T07:44:30;8.43;;;0.75;;
37771;SDS011;23610;59.380;24.642;2022-09-09T07:49:44;3.13;;;0.70;;
37771;SDS011;23610;59.380;24.642;2022-09-09T07:54:51;0.80;;;0.47;;
37771;SDS011;23610;59.380;24.642;2022-09-09T07:59:54;0.93;;;0.70;;
37771;SDS011;23610;59.380;24.642;2022-09-09T08:04:58;3.00;;;1.63;;
37771;SDS011;23610;59.380;24.642;2022-09-09T08:10:01;1.42;;;0.60;;
37771;SDS011;23610;59.380;24.642;2022-09-09T08:15:08;3.22;;;0.80;;
37771;SDS011;23610;59.380;24.642;2022-09-09T08:20:12;0.82;;;0.65;;
37771;SDS011;23610;59.380;24.642;2022-09-09T08:25:15;0.38;;;0.38;;
37771;SDS011;23610;59.380;24.642;2022-09-09T08:30:17;1.88;;;1.20;;
37771;SDS011;23610;59.380;24.642;2022-09-09T08:35:21;0.63;;;0.57;;
37771;SDS011;23610;59.380;24.642;2022-09-09T08:40:26;0.40;;;0.40;;
37771;SDS011;23610;59.380;24.642;2022-09-09T08:45:42;1.08;;;0.50;;
37771;SDS011;23610;59.380;24.642;2022-09-09T08:51:00;0.82;;;0.50;;
37771;SDS011;23610;59.380;24.642;2022-09-09T08:56:09;0.75;;;0.60;;
37771;SDS011;23610;59.380;24.642;2022-09-09T09:12:10;1.13;;;0.43;;
37771;SDS011;23610;59.380;24.642;2022-09-09T09:17:29;1.52;;;0.52;;
37771;SDS011;23610;59.380;24.642;2022-09-09T09:22:50;3.58;;;0.60;;
37771;SDS011;23610;59.380;24.642;2022-09-09T09:33:22;3.33;;;0.50;;
37771;SDS011;23610;59.380;24.642;2022-09-09T09:38:52;1.27;;;0.60;;
37771;SDS011;23610;59.380;24.642;2022-09-09T09:44:29;0.30;;;0.30;;
37771;SDS011;23610;59.380;24.642;2022-09-09T09:49:54;1.65;;;0.57;;
37771;SDS011;23610;59.380;24.642;2022-09-09T09:55:04;0.73;;;0.47;;
37771;SDS011;23610;59.380;24.642;2022-09-09T10:00:21;0.60;;;0.60;;
37771;SDS011;23610;59.380;24.642;2022-09-09T10:05:36;0.45;;;0.45;;
37771;SDS011;23610;59.380;24.642;2022-09-09T10:16:13;0.75;;;0.63;;
37771;SDS011;23610;59.380;24.642;2022-09-09T10:54:53;3.20;;;0.77;;
37771;SDS011;23610;59.380;24.642;2022-09-09T11:11:27;1.92;;;0.80;;
37771;SDS011;23610;59.380;24.642;2022-09-09T11:21:52;1.15;;;0.57;;
37771;SDS011;23610;59.380;24.642;2022-09-09T11:38:25;1.08;;;0.50;;
37771;SDS011;23610;59.380;24.642;2022-09-09T11:43:33;0.40;;;0.40;;
37771;SDS011;23610;59.380;24.642;2022-09-09T11:49:01;2.22;;;0.88;;
37771;SDS011;23610;59.380;24.642;2022-09-09T11:59:50;0.73;;;0.52;;
37771;SDS011;23610;59.380;24.642;2022-09-09T12:10:19;0.45;;;0.45;;
37771;SDS011;23610;59.380;24.642;2022-09-09T12:15:31;1.90;;;0.75;;
37771;SDS011;23610;59.380;24.642;2022-09-09T12:26:01;1.67;;;1.00;;
37771;SDS011;23610;59.380;24.642;2022-09-09T12:37:03;0.77;;;0.52;;
37771;SDS011;23610;59.380;24.642;2022-09-09T12:42:22;0.60;;;0.50;;
37771;SDS011;23610;59.380;24.642;2022-09-09T12:47:37;0.93;;;0.43;;
37771;SDS011;23610;59.380;24.642;2022-09-09T12:52:45;1.13;;;0.65;;
37771;SDS011;23610;59.380;24.642;2022-09-09T12:57:49;4.28;;;0.73;;
37771;SDS011;23610;59.380;24.642;2022-09-09T13:02:54;1.95;;;0.70;;
37771;SDS011;23610;59.380;24.642;2022-09-09T13:08:03;0.82;;;0.65;;
37771;SDS011;23610;59.380;24.642;2022-09-09T13:13:13;2.08;;;0.77;;
37771;SDS011;23610;59.380;24.642;2022-09-09T13:18:21;1.15;;;0.60;;
37771;SDS011;23610;59.380;24.642;2022-09-09T13:23:31;1.20;;;0.40;;
37771;SDS011;23610;59.380;24.642;2022-09-09T13:28:37;2.05;;;0.75;;
37771;SDS011;23610;59.380;24.642;2022-09-09T13:33:39;1.45;;;0.50;;
37771;SDS011;23610;59.380;24.642;2022-09-09T13:43:55;0.90;;;0.60;;
37771;SDS011;23610;59.380;24.642;2022-09-09T13:49:20;0.82;;;0.70;;
37771;SDS011;23610;59.380;24.642;2022-09-09T13:54:24;2.03;;;0.77;;
37771;SDS011;23610;59.380;24.642;2022-09-09T13:59:27;0.55;;;0.52;;
37771;SDS011;23610;59.380;24.642;2022-09-09T14:04:50;3.42;;;0.50;;
37771;SDS011;23610;59.380;24.642;2022-09-09T14:09:56;3.30;;;0.60;;
37771;SDS011;23610;59.380;24.642;2022-09-09T14:15:02;0.70;;;0.50;;
37771;SDS011;23610;59.380;24.642;2022-09-09T14:20:06;0.57;;;0.50;;
37771;SDS011;23610;59.380;24.642;2022-09-09T14:25:11;4.05;;;0.80;;
37771;SDS011;23610;59.380;24.642;2022-09-09T14:30:14;1.58;;;0.90;;
37771;SDS011;23610;59.380;24.642;2022-09-09T14:35:17;2.95;;;1.38;;
37771;SDS011;23610;59.380;24.642;2022-09-09T14:40:20;1.30;;;1.02;;
37771;SDS011;23610;59.380;24.642;2022-09-09T14:45:23;1.15;;;0.82;;
37771;SDS011;23610;59.380;24.642;2022-09-09T14:50:26;2.83;;;0.85;;
37771;SDS011;23610;59.380;24.642;2022-09-09T14:55:28;2.78;;;0.65;;
37771;SDS011;23610;59.380;24.642;2022-09-09T15:00:31;1.42;;;1.23;;
37771;SDS011;23610;59.380;24.642;2022-09-09T15:05:34;1.50;;;1.25;;
37771;SDS011;23610;59.380;24.642;2022-09-09T15:10:38;4.88;;;1.30;;
37771;SDS011;23610;59.380;24.642;2022-09-09T15:15:41;1.23;;;0.93;;
37771;SDS011;23610;59.380;24.642;2022-09-09T15:20:46;2.15;;;1.20;;
37771;SDS011;23610;59.380;24.642;2022-09-09T15:25:50;5.10;;;1.23;;
37771;SDS011;23610;59.380;24.642;2022-09-09T15:35:58;3.28;;;1.30;;
37771;SDS011;23610;59.380;24.642;2022-09-09T15:41:01;8.77;;;0.73;;
37771;SDS011;23610;59.380;24.642;2022-09-09T15:51:33;2.22;;;0.88;;
37771;SDS011;23610;59.380;24.642;2022-09-09T15:56:45;5.07;;;1.13;;
37771;SDS011;23610;59.380;24.642;2022-09-09T16:01:51;10.77;;;6.35;;
37771;SDS011;23610;59.380;24.642;2022-09-09T16:06:56;2.78;;;1.75;;
37771;SDS011;23610;59.380;24.642;2022-09-09T16:12:04;3.30;;;1.02;;
37771;SDS011;23610;59.380;24.642;2022-09-09T16:17:08;3.80;;;1.10;;
37771;SDS011;23610;59.380;24.642;2022-09-09T16:22:11;9.15;;;1.52;;
37771;SDS011;23610;59.380;24.642;2022-09-09T16:27:16;1.90;;;1.05;;
37771;SDS011;23610;59.380;24.642;2022-09-09T16:32:19;10.27;;;2.60;;
37771;SDS011;23610;59.380;24.642;2022-09-09T16:37:22;6.07;;;2.10;;
37771;SDS011;23610;59.380;24.642;2022-09-09T16:42:24;3.38;;;1.80;;
37771;SDS011;23610;59.380;24.642;2022-09-09T16:47:27;5.28;;;3.33;;
37771;SDS011;23610;59.380;24.642;2022-09-09T16:52:30;3.97;;;2.88;;
37771;SDS011;23610;59.380;24.642;2022-09-09T16:57:32;9.32;;;3.80;;
37771;SDS011;23610;59.380;24.642;2022-09-09T17:02:35;9.05;;;5.65;;
37771;SDS011;23610;59.380;24.642;2022-09-09T17:07:38;10.20;;;5.68;;
37771;SDS011;23610;59.380;24.642;2022-09-09T17:12:40;11.77;;;4.43;;
37771;SDS011;23610;59.380;24.642;2022-09-09T17:17:43;12.73;;;6.20;;
37771;SDS011;23610;59.380;24.642;2022-09-09T17:22:50;17.88;;;9.13;;
37771;SDS011;23610;59.380;24.642;2022-09-09T17:27:53;11.27;;;8.55;;
37771;SDS011;23610;59.380;24.642;2022-09-09T17:32:55;14.98;;;9.10;;
37771;SDS011;23610;59.380;24.642;2022-09-09T17:37:58;21.33;;;9.30;;
37771;SDS011;23610;59.380;24.642;2022-09-09T17:43:01;17.58;;;9.05;;
37771;SDS011;23610;59.380;24.642;2022-09-09T17:48:03;21.52;;;8.75;;
37771;SDS011;23610;59.380;24.642;2022-09-09T17:53:08;27.60;;;9.57;;
37771;SDS011;23610;59.380;24.642;2022-09-09T17:58:12;28.55;;;11.07;;
37771;SDS011;23610;59.380;24.642;2022-09-09T18:03:15;61.40;;;38.47;;
37771;SDS011;23610;59.380;24.642;2022-09-09T18:08:18;138.60;;;96.20;;
37771;SDS011;23610;59.380;24.642;2022-09-09T18:13:21;114.57;;;75.40;;
37771;SDS011;23610;59.380;24.642;2022-09-09T18:18:24;45.65;;;22.80;;
37771;SDS011;23610;59.380;24.642;2022-09-09T18:23:28;42.30;;;21.13;;
37771;SDS011;23610;59.380;24.642;2022-09-09T18:28:31;63.60;;;26.02;;
37771;SDS011;23610;59.380;24.642;2022-09-09T18:33:35;78.60;;;36.10;;
37771;SDS011;23610;59.380;24.642;2022-09-09T18:38:39;90.65;;;41.50;;
37771;SDS011;23610;59.380;24.642;2022-09-09T18:43:42;80.47;;;36.92;;
37771;SDS011;23610;59.380;24.642;2022-09-09T18:48:46;69.32;;;33.78;;
37771;SDS011;23610;59.380;24.642;2022-09-09T18:53:54;75.32;;;33.80;;
37771;SDS011;23610;59.380;24.642;2022-09-09T18:59:03;71.32;;;32.75;;
37771;SDS011;23610;59.380;24.642;2022-09-09T19:04:08;70.30;;;30.50;;
37771;SDS011;23610;59.380;24.642;2022-09-09T19:09:13;57.15;;;27.60;;
37771;SDS011;23610;59.380;24.642;2022-09-09T19:14:18;44.55;;;23.65;;
37771;SDS011;23610;59.380;24.642;2022-09-09T19:19:31;29.52;;;15.88;;
37771;SDS011;23610;59.380;24.642;2022-09-09T19:24:34;23.60;;;12.55;;
37771;SDS011;23610;59.380;24.642;2022-09-09T19:29:38;18.02;;;10.13;;
37771;SDS011;23610;59.380;24.642;2022-09-09T19:34:40;12.27;;;7.57;;
37771;SDS011;23610;59.380;24.642;2022-09-09T19:39:45;14.15;;;7.35;;
37771;SDS011;23610;59.380;24.642;2022-09-09T19:44:49;10.57;;;5.22;;
37771;SDS011;23610;59.380;24.642;2022-09-09T19:49:53;6.45;;;4.00;;
37771;SDS011;23610;59.380;24.642;2022-09-09T19:54:56;6.03;;;4.43;;
37771;SDS011;23610;59.380;24.642;2022-09-09T19:59:58;4.03;;;2.90;;
37771;SDS011;23610;59.380;24.642;2022-09-09T20:05:01;11.48;;;3.25;;
37771;SDS011;23610;59.380;24.642;2022-09-09T20:10:04;4.50;;;2.95;;
37771;SDS011;23610;59.380;24.642;2022-09-09T20:15:07;7.75;;;2.28;;
37771;SDS011;23610;59.380;24.642;2022-09-09T20:20:10;6.93;;;2.50;;
37771;SDS011;23610;59.380;24.642;2022-09-09T20:25:13;6.53;;;3.20;;
37771;SDS011;23610;59.380;24.642;2022-09-09T20:30:16;3.83;;;2.33;;
37771;SDS011;23610;59.380;24.642;2022-09-09T20:35:18;5.97;;;2.70;;
37771;SDS011;23610;59.380;24.642;2022-09-09T20:40:21;3.50;;;2.40;;
37771;SDS011;23610;59.380;24.642;2022-09-09T20:45:24;8.50;;;2.80;;
37771;SDS011;23610;59.380;24.642;2022-09-09T20:50:26;5.75;;;2.60;;
37771;SDS011;23610;59.380;24.642;2022-09-09T20:55:29;4.85;;;2.05;;
37771;SDS011;23610;59.380;24.642;2022-09-09T21:00:34;5.28;;;2.58;;
37771;SDS011;23610;59.380;24.642;2022-09-09T21:05:37;6.75;;;3.30;;
37771;SDS011;23610;59.380;24.642;2022-09-09T21:10:42;7.93;;;3.55;;
37771;SDS011;23610;59.380;24.642;2022-09-09T21:15:49;9.55;;;4.25;;
37771;SDS011;23610;59.380;24.642;2022-09-09T21:20:52;5.67;;;3.47;;
37771;SDS011;23610;59.380;24.642;2022-09-09T21:25:56;6.22;;;3.30;;
37771;SDS011;23610;59.380;24.642;2022-09-09T21:30:58;3.08;;;1.88;;
37771;SDS011;23610;59.380;24.642;2022-09-09T21:36:04;3.72;;;2.40;;
37771;SDS011;23610;59.380;24.642;2022-09-09T21:41:09;4.75;;;2.58;;
37771;SDS011;23610;59.380;24.642;2022-09-09T21:46:15;10.77;;;3.75;;
37771;SDS011;23610;59.380;24.642;2022-09-09T21:51:19;7.32;;;4.15;;
37771;SDS011;23610;59.380;24.642;2022-09-09T21:56:21;9.88;;;5.75;;
37771;SDS011;23610;59.380;24.642;2022-09-09T22:01:24;6.50;;;3.72;;
37771;SDS011;23610;59.380;24.642;2022-09-09T22:06:27;4.75;;;3.13;;
37771;SDS011;23610;59.380;24.642;2022-09-09T22:11:29;8.40;;;2.28;;
37771;SDS011;23610;59.380;24.642;2022-09-09T22:16:32;2.10;;;1.65;;
37771;SDS011;23610;59.380;24.642;2022-09-09T22:21:35;3.92;;;1.95;;
37771;SDS011;23610;59.380;24.642;2022-09-09T22:26:37;1.63;;;1.17;;
37771;SDS011;23610;59.380;24.642;2022-09-09T22:31:40;3.67;;;1.23;;
37771;SDS011;23610;59.380;24.642;2022-09-09T22:36:43;4.65;;;1.20;;
37771;SDS011;23610;59.380;24.642;2022-09-09T22:41:46;3.00;;;1.10;;
37771;SDS011;23610;59.380;24.642;2022-09-09T22:46:49;1.55;;;0.95;;
37771;SDS011;23610;59.380;24.642;2022-09-09T22:51:52;2.20;;;1.48;;
37771;SDS011;23610;59.380;24.642;2022-09-09T22:56:55;1.42;;;0.90;;
37771;SDS011;23610;59.380;24.642;2022-09-09T23:01:57;4.75;;;1.45;;
37771;SDS011;23610;59.380;24.642;2022-09-09T23:07:00;3.47;;;1.58;;
37771;SDS011;23610;59.380;24.642;2022-09-09T23:12:03;1.45;;;1.05;;
37771;SDS011;23610;59.380;24.642;2022-09-09T23:17:08;1.90;;;1.38;;
37771;SDS011;23610;59.380;24.642;2022-09-09T23:22:12;3.30;;;1.48;;
37771;SDS011;23610;59.380;24.642;2022-09-09T23:27:15;3.25;;;1.10;;
37771;SDS011;23610;59.380;24.642;2022-09-09T23:32:18;3.28;;;1.30;;
37771;SDS011;23610;59.380;24.642;2022-09-09T23:37:21;1.55;;;1.00;;
37771;SDS011;23610;59.380;24.642;2022-09-09T23:42:23;7.40;;;1.13;;
37771;SDS011;23610;59.380;24.642;2022-09-09T23:47:27;5.70;;;0.98;;
37771;SDS011;23610;59.380;24.642;2022-09-09T23:52:30;4.80;;;0.85;;
